Lees Summit, Missouri
Current Conditions -  °F | °C
As of 4:53 AM on Tuesday 21 Oct 2014 (Local Time) from KLXT Reporting Station
Clear Clear  
Wind Chill: 48°   Ceiling: Unl
Heat Index: 48°   Visibility: 10mi
Dew Point: 44°   Wind: 3mph
Humidity: 86%   Direction: 220°SW
Pressure: 30.1"   Gusts: NA
Location:  38.908°N, 94.2968°W
Report Text: KLXT 210953Z AUTO 22003KT 10SM CLR 09/07 A3010 RMK AO2 SLP189 T00890067
Loading
Personal Weather Stations






























Interactive Weather Map
Tropical Storm Tracking
New forecast layout! Learn more

10-Day Weather Forecast

Advertisements
Track Severe Weather on mobile